createdAt,value
2023-01-31T00:00:03.766Z,98116.41
2023-01-31T00:02:32.683Z,98115.66
2023-01-31T00:05:01.549Z,98107.78
2023-01-31T00:07:29.876Z,98107.88
2023-01-31T00:09:59.475Z,98116.31
2023-01-31T00:12:27.729Z,98110.41
2023-01-31T00:14:55.915Z,98114.63
2023-01-31T00:17:24.161Z,98106.75
2023-01-31T00:19:52.414Z,98125.34
2023-01-31T00:22:20.686Z,98119.06
2023-01-31T00:24:48.922Z,98111.88
2023-01-31T00:27:19.753Z,98109.13
2023-01-31T00:29:47.975Z,98103.88
2023-01-31T00:32:16.234Z,98114.28
2023-01-31T00:34:44.453Z,98116.59
2023-01-31T00:37:12.688Z,98114.81
2023-01-31T00:39:40.914Z,98117.56
2023-01-31T00:42:09.134Z,98107.91
2023-01-31T00:44:38.750Z,98102.84
2023-01-31T00:47:07.335Z,98110.63
2023-01-31T00:49:36.028Z,98113.88
2023-01-31T00:52:04.381Z,98114.94
2023-01-31T00:54:32.697Z,98108.94
2023-01-31T00:57:00.913Z,98097.91
2023-01-31T00:59:29.254Z,98103.97
2023-01-31T01:01:58.921Z,98103.78
2023-01-31T01:04:27.227Z,98111.78
2023-01-31T01:06:55.521Z,98103.88
2023-01-31T01:09:23.913Z,98101.16
2023-01-31T01:11:52.250Z,98109.25
2023-01-31T01:14:20.759Z,98097.69
2023-01-31T01:16:48.998Z,98099.47
2023-01-31T01:19:20.657Z,98109.78
2023-01-31T01:21:48.974Z,98118.84
2023-01-31T01:24:19.943Z,98107.13
2023-01-31T01:26:48.453Z,98116.53
2023-01-31T01:29:16.770Z,98120.06
2023-01-31T01:31:45.068Z,98114.50
2023-01-31T01:34:15.798Z,98105.69
2023-01-31T01:36:47.991Z,98119.06
2023-01-31T01:39:17.314Z,98112.63
2023-01-31T01:41:46.652Z,98116.75
2023-01-31T01:44:57.824Z,98122.81
2023-01-31T01:47:39.849Z,98122.91
2023-01-31T01:50:14.856Z,98126.59
2023-01-31T01:52:50.100Z,98114.72
2023-01-31T01:55:24.077Z,98131.03
2023-01-31T01:58:00.538Z,98134.28
2023-01-31T02:00:31.087Z,98134.19
2023-01-31T02:03:02.435Z,98144.50
2023-01-31T02:05:36.659Z,98147.34
2023-01-31T02:08:06.970Z,98155.03
2023-01-31T02:10:43.437Z,98157.97
2023-01-31T02:13:13.241Z,98152.50
2023-01-31T02:15:41.514Z,98156.19
2023-01-31T02:18:10.801Z,98161.44
2023-01-31T02:21:32.325Z,98157.00
2023-01-31T02:24:39.326Z,98163.22
2023-01-31T02:27:52.975Z,98154.47
2023-01-31T02:31:05.923Z,98150.69
2023-01-31T02:33:43.398Z,98154.81
2023-01-31T02:36:24.389Z,98155.84
2023-01-31T02:39:04.122Z,98143.34
2023-01-31T02:41:40.462Z,98154.47
2023-01-31T02:44:38.852Z,98145.66
2023-01-31T02:47:19.450Z,98156.09
2023-01-31T02:49:55.038Z,98144.81
2023-01-31T02:52:33.100Z,98158.81
2023-01-31T02:55:28.833Z,98156.19
2023-01-31T02:58:01.465Z,98169.53
2023-01-31T03:00:33.494Z,98173.13
2023-01-31T03:03:01.841Z,98177.31
2023-01-31T03:05:31.440Z,98169.63
2023-01-31T03:08:05.034Z,98179.41
2023-01-31T03:11:00.135Z,98178.16
2023-01-31T03:13:49.115Z,98181.09
2023-01-31T03:16:42.677Z,98183.72
2023-01-31T03:19:17.708Z,98188.75
2023-01-31T03:21:53.122Z,98204.84
2023-01-31T03:24:26.246Z,98203.06
2023-01-31T03:26:57.330Z,98200.97
2023-01-31T03:29:27.577Z,98202.66
2023-01-31T03:31:59.889Z,98201.81
2023-01-31T03:34:28.949Z,98205.00
2023-01-31T03:37:07.681Z,98213.81
2023-01-31T03:39:43.953Z,98217.47
2023-01-31T03:42:18.631Z,98221.88
2023-01-31T03:44:56.569Z,98219.16
2023-01-31T03:47:28.866Z,98216.31
2023-01-31T03:50:00.740Z,98218.13
2023-01-31T03:52:38.459Z,98223.28
2023-01-31T03:55:14.769Z,98225.91
2023-01-31T03:57:44.888Z,98226.94
2023-01-31T04:00:16.718Z,98243.47
2023-01-31T04:02:45.009Z,98238.88
2023-01-31T04:05:18.226Z,98241.78
2023-01-31T04:07:48.351Z,98238.97
2023-01-31T04:10:19.772Z,98244.13
2023-01-31T04:12:48.585Z,98240.53
2023-01-31T04:15:16.985Z,98250.31
2023-01-31T04:17:45.238Z,98262.28
2023-01-31T04:20:14.231Z,98260.41
2023-01-31T04:22:42.615Z,98265.06
2023-01-31T04:25:12.727Z,98263.34
2023-01-31T04:27:40.985Z,98272.00
2023-01-31T04:30:10.938Z,98264.94
2023-01-31T04:32:39.129Z,98276.50
2023-01-31T04:35:08.024Z,98278.94
2023-01-31T04:37:36.700Z,98277.34
2023-01-31T04:40:05.875Z,98285.25
2023-01-31T04:42:35.570Z,98279.88
2023-01-31T04:45:04.057Z,98285.97
2023-01-31T04:47:32.952Z,98278.31
2023-01-31T04:50:01.825Z,98277.56
2023-01-31T04:52:30.103Z,98285.34
2023-01-31T04:54:58.386Z,98288.06
2023-01-31T04:57:26.646Z,98301.13
2023-01-31T04:59:56.187Z,98301.22
2023-01-31T05:02:24.458Z,98307.75
2023-01-31T05:04:52.663Z,98303.97
2023-01-31T05:07:20.880Z,98312.50
2023-01-31T05:09:49.123Z,98305.53
2023-01-31T05:12:17.379Z,98297.03
2023-01-31T05:14:45.922Z,98297.13
2023-01-31T05:17:15.560Z,98301.44
2023-01-31T05:19:43.894Z,98297.94
2023-01-31T05:22:12.110Z,98298.03
2023-01-31T05:24:40.351Z,98292.69
2023-01-31T05:27:08.559Z,98294.28
2023-01-31T05:29:37.066Z,98291.00
2023-01-31T05:32:05.988Z,98293.44
2023-01-31T05:34:35.965Z,98290.06
2023-01-31T05:37:05.415Z,98300.97
2023-01-31T05:39:33.815Z,98305.09
2023-01-31T05:42:02.133Z,98308.56
2023-01-31T05:44:30.886Z,98306.44
2023-01-31T05:47:01.375Z,98313.09
2023-01-31T05:49:33.330Z,98305.09
2023-01-31T05:52:03.389Z,98311.94
2023-01-31T05:54:31.646Z,98311.28
2023-01-31T05:57:00.336Z,98311.94
2023-01-31T05:59:31.039Z,98325.09
2023-01-31T06:01:59.786Z,98318.16
2023-01-31T06:04:28.166Z,98327.72
2023-01-31T06:06:56.397Z,98318.16
2023-01-31T06:09:26.083Z,98320.50
2023-01-31T06:11:54.312Z,98322.06
2023-01-31T06:14:22.653Z,98319.22
2023-01-31T06:16:50.911Z,98312.13
2023-01-31T06:19:21.297Z,98311.19
2023-01-31T06:21:49.497Z,98319.84
2023-01-31T06:24:17.758Z,98312.91
2023-01-31T06:26:47.406Z,98311.94
2023-01-31T06:29:15.702Z,98332.97
2023-01-31T06:31:46.136Z,98336.38
2023-01-31T06:34:14.698Z,98352.34
2023-01-31T06:36:42.952Z,98356.53
2023-01-31T06:39:12.808Z,98352.13
2023-01-31T06:41:41.123Z,98348.09
2023-01-31T06:44:10.738Z,98353.16
2023-01-31T06:46:39.546Z,98351.47
2023-01-31T06:49:07.769Z,98345.75
2023-01-31T06:51:36.029Z,98346.44
2023-01-31T06:54:04.514Z,98355.06
2023-01-31T06:56:32.823Z,98348.09
2023-01-31T06:59:01.061Z,98356.66
2023-01-31T07:01:30.699Z,98353.16
2023-01-31T07:03:58.942Z,98357.50
2023-01-31T07:06:27.272Z,98359.47
2023-01-31T07:08:56.142Z,98356.75
2023-01-31T07:11:24.532Z,98362.28
2023-01-31T07:13:53.250Z,98363.44
2023-01-31T07:16:22.858Z,98361.53
2023-01-31T07:18:54.990Z,98366.81
2023-01-31T07:21:24.018Z,98359.66
2023-01-31T07:23:52.344Z,98371.13
2023-01-31T07:26:20.645Z,98371.97
2023-01-31T07:28:48.978Z,98372.16
2023-01-31T07:31:17.297Z,98367.56
2023-01-31T07:33:45.639Z,98383.13
2023-01-31T07:36:19.781Z,98373.38
2023-01-31T07:38:48.103Z,98368.84
2023-01-31T07:41:16.428Z,98377.50
2023-01-31T07:43:44.883Z,98386.03
2023-01-31T07:46:13.187Z,98382.66
2023-01-31T07:48:41.497Z,98384.22
2023-01-31T07:51:10.142Z,98386.94
2023-01-31T07:53:42.250Z,98396.00
2023-01-31T07:56:12.935Z,98400.75
2023-01-31T07:58:42.887Z,98402.44
2023-01-31T08:01:34.077Z,98399.63
2023-01-31T08:04:18.400Z,98404.13
2023-01-31T08:06:49.253Z,98404.88
2023-01-31T08:09:18.933Z,98413.91
2023-01-31T08:11:47.303Z,98397.09
2023-01-31T08:14:15.653Z,98406.34
2023-01-31T08:16:43.922Z,98408.25
2023-01-31T08:19:12.257Z,98399.50
2023-01-31T08:21:40.535Z,98401.75
2023-01-31T08:24:10.036Z,98399.03
2023-01-31T08:26:39.725Z,98407.97
2023-01-31T08:29:07.952Z,98407.88
2023-01-31T08:31:36.385Z,98407.66
2023-01-31T08:34:04.804Z,98409.25
2023-01-31T08:36:33.892Z,98405.75
2023-01-31T08:39:02.402Z,98403.03
2023-01-31T08:41:32.631Z,98414.31
2023-01-31T08:44:04.912Z,98417.25
2023-01-31T08:46:35.300Z,98414.59
2023-01-31T08:49:06.387Z,98413.94
2023-01-31T08:51:34.696Z,98416.38
2023-01-31T08:54:03.175Z,98410.50
2023-01-31T08:56:31.469Z,98417.03
2023-01-31T08:59:01.365Z,98411.78
2023-01-31T09:01:30.355Z,98422.59
2023-01-31T09:03:58.754Z,98424.84
2023-01-31T09:06:28.912Z,98412.63
2023-01-31T09:08:58.802Z,98422.88
2023-01-31T09:11:30.272Z,98412.34
2023-01-31T09:13:59.179Z,98413.81
2023-01-31T09:16:29.228Z,98414.91
2023-01-31T09:18:57.611Z,98415.47
2023-01-31T09:21:26.453Z,98413.53
2023-01-31T09:23:58.025Z,98420.13
2023-01-31T09:26:27.172Z,98413.13
2023-01-31T09:28:56.171Z,98424.03
2023-01-31T09:31:24.700Z,98410.66
2023-01-31T09:33:54.869Z,98413.94
2023-01-31T09:36:25.123Z,98413.63
2023-01-31T09:38:56.522Z,98423.75
2023-01-31T09:41:33.499Z,98428.28
2023-01-31T09:44:05.884Z,98421.75
2023-01-31T09:46:38.755Z,98427.75
2023-01-31T09:49:16.418Z,98433.13
2023-01-31T09:51:45.422Z,98416.59
2023-01-31T09:54:22.237Z,98416.91
2023-01-31T09:57:02.430Z,98413.13
2023-01-31T09:59:43.660Z,98398.28
2023-01-31T10:02:39.867Z,98400.59
2023-01-31T10:05:24.953Z,98395.13
2023-01-31T10:08:06.505Z,98395.22
2023-01-31T10:10:38.844Z,98392.28
2023-01-31T10:13:15.972Z,98395.44
2023-01-31T10:15:47.977Z,98380.69
2023-01-31T10:18:20.980Z,98389.84
2023-01-31T10:20:54.161Z,98396.81
2023-01-31T10:23:30.362Z,98387.84
2023-01-31T10:26:03.209Z,98386.78
2023-01-31T10:28:40.176Z,98384.06
2023-01-31T10:31:18.038Z,98388.28
2023-01-31T10:33:53.554Z,98385.13
2023-01-31T10:36:30.758Z,98375.97
2023-01-31T10:39:06.684Z,98375.84
2023-01-31T10:41:56.657Z,98375.31
2023-01-31T10:44:33.608Z,98373.94
2023-01-31T10:47:02.202Z,98361.41
2023-01-31T10:49:30.948Z,98364.16
2023-01-31T10:52:18.352Z,98355.38
2023-01-31T10:55:05.218Z,98350.44
2023-01-31T10:57:34.170Z,98350.44
2023-01-31T11:00:02.925Z,98344.84
2023-01-31T11:02:32.070Z,98348.56
2023-01-31T11:05:01.121Z,98348.34
2023-01-31T11:07:32.667Z,98350.75
2023-01-31T11:10:00.950Z,98344.22
2023-01-31T11:12:44.483Z,98343.28
2023-01-31T11:15:19.555Z,98339.69
2023-01-31T11:17:49.099Z,98331.66
2023-01-31T11:20:24.016Z,98327.25
2023-01-31T11:22:55.131Z,98322.81
2023-01-31T11:25:25.859Z,98311.22
2023-01-31T11:27:57.781Z,98303.00
2023-01-31T11:30:30.936Z,98287.91
2023-01-31T11:32:59.676Z,98281.81
2023-01-31T11:35:30.916Z,98284.94
2023-01-31T11:38:04.099Z,98275.47
2023-01-31T11:40:35.545Z,98278.22
2023-01-31T11:43:06.944Z,98272.72
2023-01-31T11:45:38.780Z,98279.59
2023-01-31T11:48:13.188Z,98273.69
2023-01-31T11:50:45.117Z,98268.16
2023-01-31T11:53:21.787Z,98257.38
2023-01-31T11:55:52.577Z,98247.81
2023-01-31T11:58:24.016Z,98239.78
2023-01-31T12:00:58.820Z,98238.38
2023-01-31T12:03:28.239Z,98237.94
2023-01-31T12:06:05.927Z,98238.78
2023-01-31T12:08:39.483Z,98237.72
2023-01-31T12:11:25.000Z,98235.19
2023-01-31T12:13:55.577Z,98233.94
2023-01-31T12:16:27.912Z,98237.09
2023-01-31T12:19:09.889Z,98230.53
2023-01-31T12:21:54.109Z,98230.75
2023-01-31T12:24:41.035Z,98221.88
2023-01-31T12:27:25.970Z,98222.13
2023-01-31T12:30:22.795Z,98215.16
2023-01-31T12:33:10.506Z,98210.47
2023-01-31T12:35:50.885Z,98207.72
2023-01-31T12:38:46.419Z,98196.47
2023-01-31T12:41:30.761Z,98198.88
2023-01-31T12:44:30.310Z,98196.72
2023-01-31T12:47:20.186Z,98188.59
2023-01-31T12:50:06.629Z,98179.75
2023-01-31T12:52:46.655Z,98184.66
2023-01-31T12:55:26.488Z,98193.53
2023-01-31T12:58:15.510Z,98185.94
2023-01-31T13:00:54.445Z,98183.31
2023-01-31T13:04:00.320Z,98187.16
2023-01-31T13:06:35.748Z,98189.56
2023-01-31T13:09:10.672Z,98193.03
2023-01-31T13:11:44.027Z,98189.91
2023-01-31T13:14:17.966Z,98170.53
2023-01-31T13:16:48.920Z,98178.66
2023-01-31T13:19:23.951Z,98185.72
2023-01-31T13:21:58.536Z,98173.72
2023-01-31T13:24:33.824Z,98168.22
2023-01-31T13:27:08.092Z,98162.50
2023-01-31T13:29:43.502Z,98155.28
2023-01-31T13:32:20.151Z,98147.47
2023-01-31T13:34:53.963Z,98155.28
2023-01-31T13:37:22.629Z,98155.06
2023-01-31T13:39:55.730Z,98152.91
2023-01-31T13:42:23.980Z,98141.28
2023-01-31T13:44:55.976Z,98156.53
2023-01-31T13:47:30.214Z,98150.78
2023-01-31T13:50:03.884Z,98158.94
2023-01-31T13:52:37.572Z,98148.97
2023-01-31T13:55:11.579Z,98148.13
2023-01-31T13:57:47.081Z,98149.69
2023-01-31T14:00:40.793Z,98140.09
2023-01-31T14:03:13.019Z,98133.13
2023-01-31T14:06:00.186Z,98141.91
2023-01-31T14:08:59.098Z,98143.81
2023-01-31T14:11:36.558Z,98134.84
2023-01-31T14:14:21.263Z,98145.50
2023-01-31T14:16:53.034Z,98147.91
2023-01-31T14:20:05.766Z,98142.97
2023-01-31T14:22:35.824Z,98137.81
2023-01-31T14:25:14.944Z,98130.97
2023-01-31T14:27:47.588Z,98121.25
2023-01-31T14:30:35.951Z,98124.88
2023-01-31T14:33:33.343Z,98115.97
2023-01-31T14:36:45.791Z,98114.19
2023-01-31T14:40:10.362Z,98116.81
2023-01-31T14:43:26.113Z,98124.88
2023-01-31T14:46:28.323Z,98111.78
2023-01-31T14:49:53.591Z,98119.09
2023-01-31T14:52:43.502Z,98124.25
2023-01-31T14:55:33.766Z,98112.03
2023-01-31T14:58:05.068Z,98116.94
2023-01-31T15:00:37.343Z,98125.22
2023-01-31T15:03:08.802Z,98130.25
2023-01-31T15:05:46.312Z,98129.63
2023-01-31T15:08:49.339Z,98129.41
2023-01-31T15:11:43.041Z,98120.75
2023-01-31T15:14:35.317Z,98117.41
2023-01-31T15:17:27.608Z,98108.66
2023-01-31T15:20:15.724Z,98115.00
2023-01-31T15:22:46.830Z,98107.09
2023-01-31T15:25:32.539Z,98099.31
2023-01-31T15:28:02.452Z,98098.44
2023-01-31T15:30:34.831Z,98087.78
2023-01-31T15:33:09.709Z,98084.28
2023-01-31T15:35:48.048Z,98093.06
2023-01-31T15:38:28.994Z,98082.63
2023-01-31T15:41:22.591Z,98089.81
2023-01-31T15:43:53.535Z,98096.03
2023-01-31T15:46:29.348Z,98109.34
2023-01-31T15:48:58.409Z,98121.59
2023-01-31T15:51:27.771Z,98109.22
2023-01-31T15:54:05.889Z,98100.63
2023-01-31T15:56:38.776Z,98077.09
2023-01-31T15:59:13.814Z,98076.25
2023-01-31T16:01:49.480Z,98076.38
2023-01-31T16:04:18.105Z,98079.97
2023-01-31T16:06:48.685Z,98102.03
2023-01-31T16:09:28.311Z,98119.78
2023-01-31T16:11:57.725Z,98121.56
2023-01-31T16:14:26.819Z,98120.59
2023-01-31T16:16:58.803Z,98120.81
2023-01-31T16:19:32.048Z,98116.63
2023-01-31T16:22:00.896Z,98105.53
2023-01-31T16:24:32.175Z,98096.94
2023-01-31T16:27:03.480Z,98091.88
2023-01-31T16:29:41.407Z,98085.75
2023-01-31T16:32:19.210Z,98093.78
2023-01-31T16:34:55.887Z,98076.75
2023-01-31T16:37:34.817Z,98076.66
2023-01-31T16:40:09.228Z,98070.53
2023-01-31T16:42:39.245Z,98062.50
2023-01-31T16:45:30.786Z,98071.50
2023-01-31T16:48:22.665Z,98069.31
2023-01-31T16:50:52.924Z,98079.50
2023-01-31T16:53:39.967Z,98096.16
2023-01-31T16:56:24.916Z,98083.19
2023-01-31T16:58:56.359Z,98097.97
2023-01-31T17:01:28.630Z,98089.09
2023-01-31T17:04:07.680Z,98089.09
2023-01-31T17:06:37.023Z,98095.44
2023-01-31T17:09:07.689Z,98100.81
2023-01-31T17:11:43.012Z,98093.75
2023-01-31T17:14:12.242Z,98092.28
2023-01-31T17:16:40.854Z,98084.28
2023-01-31T17:19:09.254Z,98096.50
2023-01-31T17:21:41.908Z,98105.13
2023-01-31T17:24:15.255Z,98102.59
2023-01-31T17:26:45.506Z,98096.00
2023-01-31T17:29:14.169Z,98102.09
2023-01-31T17:31:42.626Z,98101.41
2023-01-31T17:34:15.353Z,98094.44
2023-01-31T17:36:44.945Z,98091.94
2023-01-31T17:39:13.318Z,98104.16
2023-01-31T17:41:42.103Z,98098.13
2023-01-31T17:44:15.271Z,98099.00
2023-01-31T17:46:44.336Z,98094.56
2023-01-31T17:49:13.270Z,98088.44
2023-01-31T17:51:41.868Z,98079.69
2023-01-31T17:54:10.360Z,98080.53
2023-01-31T17:56:39.210Z,98070.13
2023-01-31T17:59:12.290Z,98078.97
2023-01-31T18:01:44.800Z,98086.25
2023-01-31T18:04:13.208Z,98089.88
2023-01-31T18:06:41.484Z,98075.84
2023-01-31T18:09:10.264Z,98078.59
2023-01-31T18:11:43.613Z,98086.94
2023-01-31T18:14:12.008Z,98079.66
2023-01-31T18:16:40.681Z,98073.53
2023-01-31T18:19:11.440Z,98094.22
2023-01-31T18:21:46.817Z,98084.31
2023-01-31T18:24:15.374Z,98082.53
2023-01-31T18:26:44.713Z,98074.72
2023-01-31T18:29:19.801Z,98080.69
2023-01-31T18:31:48.771Z,98077.53
2023-01-31T18:34:18.541Z,98100.06
2023-01-31T18:36:46.882Z,98088.81
2023-01-31T18:39:15.371Z,98094.91
2023-01-31T18:41:43.869Z,98087.09
2023-01-31T18:44:12.165Z,98079.53
2023-01-31T18:46:40.506Z,98096.16
2023-01-31T18:49:08.831Z,98092.56
2023-01-31T18:51:39.181Z,98098.41
2023-01-31T18:54:08.715Z,98095.63
2023-01-31T18:56:37.085Z,98103.09
2023-01-31T18:59:05.518Z,98091.59
2023-01-31T19:01:33.791Z,98094.22
2023-01-31T19:04:02.684Z,98095.31
2023-01-31T19:06:35.542Z,98112.78
2023-01-31T19:09:07.439Z,98105.72
2023-01-31T19:11:36.120Z,98097.81
2023-01-31T19:14:06.915Z,98093.91
2023-01-31T19:16:40.252Z,98097.38
2023-01-31T19:19:10.139Z,98096.75
2023-01-31T19:21:39.089Z,98088.09
2023-01-31T19:24:12.671Z,98101.53
2023-01-31T19:26:41.373Z,98104.06
2023-01-31T19:29:11.101Z,98111.34
2023-01-31T19:31:39.371Z,98110.47
2023-01-31T19:34:08.308Z,98096.59
2023-01-31T19:36:39.345Z,98103.31
2023-01-31T19:39:12.612Z,98097.63
2023-01-31T19:41:42.414Z,98102.91
2023-01-31T19:44:11.106Z,98101.84
2023-01-31T19:46:39.406Z,98095.75
2023-01-31T19:49:07.664Z,98104.50
2023-01-31T19:51:37.979Z,98104.06
2023-01-31T19:54:07.932Z,98098.03
2023-01-31T19:56:36.198Z,98099.38
2023-01-31T19:59:06.067Z,98091.00
2023-01-31T20:01:34.777Z,98092.66
2023-01-31T20:04:03.140Z,98091.38
2023-01-31T20:06:35.039Z,98088.00
2023-01-31T20:09:07.367Z,98088.38
2023-01-31T20:11:37.154Z,98079.59
2023-01-31T20:14:06.513Z,98076.66
2023-01-31T20:16:34.948Z,98082.13
2023-01-31T20:19:03.752Z,98080.84
2023-01-31T20:21:32.152Z,98074.50
2023-01-31T20:24:00.581Z,98070.81
2023-01-31T20:26:29.857Z,98075.84
2023-01-31T20:28:59.832Z,98072.25
2023-01-31T20:31:28.454Z,98084.34
2023-01-31T20:33:56.779Z,98081.72
2023-01-31T20:36:25.241Z,98082.25
2023-01-31T20:38:53.704Z,98096.38
2023-01-31T20:41:22.576Z,98080.34
2023-01-31T20:43:51.530Z,98084.03
2023-01-31T20:46:21.872Z,98096.25
2023-01-31T20:48:50.408Z,98092.56
2023-01-31T20:51:18.745Z,98087.50
2023-01-31T20:53:47.043Z,98083.91
2023-01-31T20:56:17.063Z,98098.66
2023-01-31T20:58:45.438Z,98096.84
2023-01-31T21:01:14.189Z,98078.63
2023-01-31T21:03:43.945Z,98073.25
2023-01-31T21:06:12.500Z,98085.72
2023-01-31T21:08:41.234Z,98100.69
2023-01-31T21:11:12.793Z,98085.59
2023-01-31T21:13:43.349Z,98092.78
2023-01-31T21:16:15.514Z,98096.25
2023-01-31T21:18:45.942Z,98081.91
2023-01-31T21:21:23.019Z,98077.47
2023-01-31T21:23:53.050Z,98066.84
2023-01-31T21:26:25.587Z,98061.91
2023-01-31T21:28:54.961Z,98061.69
2023-01-31T21:31:23.454Z,98062.72
2023-01-31T21:33:54.107Z,98059.84
2023-01-31T21:36:25.503Z,98051.84
2023-01-31T21:38:54.843Z,98047.75
2023-01-31T21:41:39.738Z,98044.03
2023-01-31T21:44:08.075Z,98037.22
2023-01-31T21:46:36.889Z,98028.00
2023-01-31T21:49:07.213Z,98034.94
2023-01-31T21:51:35.657Z,98032.06
2023-01-31T21:54:04.118Z,98038.31
2023-01-31T21:56:32.602Z,98045.25
2023-01-31T21:59:00.848Z,98053.88
2023-01-31T22:01:31.441Z,98045.00
2023-01-31T22:04:00.748Z,98042.59
2023-01-31T22:06:37.613Z,98068.84
2023-01-31T22:09:08.407Z,98068.72
2023-01-31T22:11:37.082Z,98075.06
2023-01-31T22:14:09.060Z,98068.72
2023-01-31T22:16:38.094Z,98071.25
2023-01-31T22:19:06.804Z,98074.84
2023-01-31T22:21:38.396Z,98077.25
2023-01-31T22:24:11.475Z,98077.38
2023-01-31T22:26:42.798Z,98079.88
2023-01-31T22:29:13.339Z,98073.78
2023-01-31T22:31:41.890Z,98078.81
2023-01-31T22:34:14.825Z,98082.31
2023-01-31T22:36:44.834Z,98078.31
2023-01-31T22:39:16.002Z,98083.84
2023-01-31T22:41:45.220Z,98083.97
2023-01-31T22:44:13.813Z,98086.50
2023-01-31T22:46:42.233Z,98083.97
2023-01-31T22:49:10.841Z,98085.75
2023-01-31T22:51:39.159Z,98074.97
2023-01-31T22:54:09.443Z,98069.81
2023-01-31T22:56:37.701Z,98077.50
2023-01-31T22:59:08.315Z,98063.28
2023-01-31T23:01:39.490Z,98068.66
2023-01-31T23:04:11.093Z,98070.44
2023-01-31T23:06:39.636Z,98066.16
2023-01-31T23:09:09.434Z,98063.50
2023-01-31T23:11:37.789Z,98062.44
2023-01-31T23:14:06.221Z,98052.00
2023-01-31T23:16:52.007Z,98058.72
2023-01-31T23:19:20.350Z,98044.94
2023-01-31T23:21:49.382Z,98059.69
2023-01-31T23:24:19.810Z,98050.81
2023-01-31T23:26:48.283Z,98044.72
2023-01-31T23:29:16.613Z,98043.75
2023-01-31T23:31:45.982Z,98057.50
2023-01-31T23:34:14.632Z,98047.59
2023-01-31T23:36:42.940Z,98051.78
2023-01-31T23:39:11.477Z,98050.78
2023-01-31T23:41:41.057Z,98053.31
2023-01-31T23:44:09.595Z,98056.66
2023-01-31T23:46:38.262Z,98043.25
2023-01-31T23:49:06.821Z,98045.06
2023-01-31T23:51:36.356Z,98045.19
2023-01-31T23:54:04.975Z,98035.47
2023-01-31T23:56:33.225Z,98040.63
2023-01-31T23:59:03.743Z,98032.72
